ADDS METAR Data INFO
IDs: Format: Raw Decoded Include TAF

Data at: 2025 UTC 16 Dec 2017

KSQI 161956Z AUTO 25005KT 10SM CLR 09/M03 A2987 RMK AO2 SLP138 T00941028
KSQI 161856Z AUTO VRB04KT 10SM CLR 08/M03 A2987 RMK AO2 SLP138 T00831033
KSQI 161756Z AUTO 27006KT 10SM 08/M03 A2988 RMK AO2 SLP141 6//// T00781028 10078 21033 51008
KSQI 161656Z AUTO 24008KT 10SM CLR 06/M03 A2988 RMK AO2 SLP141 T00611028
KSQI 161556Z AUTO 25007KT 10SM CLR 04/M03 A2987 RMK AO2 SLP137 T00391033
KSQI 161456Z AUTO 22003KT 10SM CLR 02/M04 A2985 RMK AO2 SLP132 6//// T00171039 53011 FZRANO
KSQI 161356Z AUTO 00000KT 10SM CLR M03/M05 A2984 RMK AO2 SLP127 T10331050 FZRANO
KSQI 161256Z AUTO 00000KT 10SM CLR M01/M04 A2983 RMK AO2 SLP125 T10061044 FZRANO
KSQI 161156Z AUTO 00000KT 10SM CLR M01/M04 A2982 RMK AO2 SLP122 7//// T10061039 10022 21006 55003 FZRANO
KSQI 161056Z AUTO VRB04KT 10SM CLR 01/M04 A2980 RMK AO2 SLP114 T00061044 FZRANO
KSQI 160956Z AUTO VRB05KT 10SM FEW120 02/M04 A2981 RMK AO2 SLP117 T00171044 FZRANO
KSQI 160856Z AUTO VRB04KT 10SM CLR 02/M04 A2983 RMK AO2 SLP124 T00171044 56009 FZRANO
KSQI 160756Z AUTO VRB05KT 10SM BKN085 02/M05 A2984 RMK AO2 SLP127 T00171050 FZRANO
KSQI 160656Z AUTO VRB04KT 10SM CLR 02/M06 A2984 RMK AO2 SLP127 T00171056 FZRANO
KSQI 160556Z AUTO 22007KT 190V250 10SM OVC100 02/M06 A2986 RMK AO2 SLP134 T00221056 10028 20011 400281050 58012 FZRANO
KSQI 160456Z AUTO VRB05KT 10SM OVC090 02/M06 A2988 RMK AO2 SLP140 T00221056 FZRANO
KSQI 160356Z AUTO 22005KT 10SM OVC095 02/M06 A2988 RMK AO2 SLP143 T00171056 FZRANO
KSQI 160256Z AUTO VRB05KT 10SM OVC090 02/M06 A2989 RMK AO2 SLP144 T00171056 58004 FZRANO
KSQI 160156Z AUTO VRB05KT 10SM BKN060 BKN090 01/M06 A2990 RMK AO2 SLP149 T00111056 FZRANO
KSQI 160056Z AUTO VRB05KT 10SM OVC055 02/M05 A2990 RMK AO2 SLP148 T00171050 FZRANO TSNO
KSQI 152356Z AUTO 22003KT 10SM OVC055 01/M04 A2991 RMK AO2 SLP149 6//// T00111044 10017 21006 50000 FZRANO
KSQI 152256Z AUTO 23006KT 10SM OVC060 01/M04 A2990 RMK AO2 SLP147 T00111044 FZRANO
KSQI 152156Z AUTO 24009KT 10SM OVC060 01/M05 A2991 RMK AO2 RAB03E14 SLP150 P0000 T00111050 FZRANO
KSQI 152111Z AUTO 26011KT 10SM -RA FEW029 OVC048 01/M05 A2991 RMK AO2 RAB03 P0000 FZRANO
KSQI 152056Z AUTO 25015KT 10SM BKN029 OVC048 01/M06 A2991 RMK AO2 SLP149 60000 T00111056 56006 FZRANO
KSQI 152049Z AUTO 25012KT 10SM SCT029 OVC048 01/M06 A2991 RMK AO2 FZRANO
KSQI 151956Z AUTO 25015G20KT 10SM BKN029 OVC060 01/M06 A2991 RMK AO2 UPE05 SLPNO P0000 T00111061 FZRANO
KSQI 151856Z AUTO 24011G19KT 10SM UP BKN038 BKN047 OVC060 00/M06 A2992 RMK AO2 UPB30SNE30 SLP156 P0000 T00001056 FZRANO
KSQI 151826Z AUTO 26015KT 9SM -SN FEW023 OVC036 00/M04 A2994 RMK AO2 P0000 FZRANO
KSQI 151756Z AUTO 25012G22KT 7SM -SN OVC027 00/M04 A2995 RMK AO2 RAB24E32SNB32 SLP165 P0000 60000 T00001039 10011 21050 58013 FZRANO
KSQI 151741Z AUTO 26014G21KT 9SM -SN BKN029 OVC048 00/M06 A2996 RMK AO2 RAB24E32SNB32 P0000 FZRANO
KSQI 151656Z AUTO 27013KT 10SM BKN044 01/M06 A2997 RMK AO2 SLP171 T00061061 FZRANO
KSQI 151556Z AUTO 25012KT 10SM SCT040 M01/M07 A2998 RMK AO2 SLP176 T10111067 FZRANO
KSQI 151456Z AUTO 28008KT 10SM OVC040 M03/M07 A2999 RMK AO2 SLPNO T10281072 51008 FZRANO
KSQI 151356Z AUTO 27009KT 10SM BKN040 M04/M08 A2998 RMK AO2 SLP177 T10441078 FZRANO
KSQI 151256Z AUTO 28010KT 10SM BKN038 M04/M08 A2997 RMK AO2 SLP174 T10441078 FZRANO TSNO
KSQI 151156Z AUTO 28014KT 10SM OVC038 M03/M08 A2996 RMK AO2 SLP169 6//// 7//// T10331083 56001 FZRANO
KSQI 151146Z AUTO 29015KT 10SM FEW029 OVC036 M03/M08 A2996 RMK AO2 FZRANO
KSQI 151056Z AUTO 27012KT 10SM BKN025 OVC029 M03/M07 A2996 RMK AO2 SLP167 T10281067 FZRANO
KSQI 150956Z AUTO 26012KT 10SM OVC023 M03/M07 A2996 RMK AO2 SLP168 T10281067 FZRANO
KSQI 150926Z AUTO 10SM OVC025 M03/M07 RMK AO2 FZRANO $
KSQI 150856Z AUTO 25011KT 10SM M03/M07 A2998 RMK AO2 SLP174 6//// T10331072 FZRANO